sensor_id;sensor_type;location;lat;lon;timestamp;P1;durP1;ratioP1;P2;durP2;ratioP2
15931;SDS011;8065;49.520;11.284;2023-11-18T00:00:09;9.80;;;6.90;;
15931;SDS011;8065;49.520;11.284;2023-11-18T00:02:42;7.83;;;6.47;;
15931;SDS011;8065;49.520;11.284;2023-11-18T00:05:12;10.67;;;6.70;;
15931;SDS011;8065;49.520;11.284;2023-11-18T00:07:41;8.57;;;6.53;;
15931;SDS011;8065;49.520;11.284;2023-11-18T00:10:10;9.23;;;7.27;;
15931;SDS011;8065;49.520;11.284;2023-11-18T00:12:38;6.73;;;6.00;;
15931;SDS011;8065;49.520;11.284;2023-11-18T00:15:08;9.63;;;6.43;;
15931;SDS011;8065;49.520;11.284;2023-11-18T00:17:37;10.80;;;6.40;;
15931;SDS011;8065;49.520;11.284;2023-11-18T00:20:09;8.40;;;6.50;;
15931;SDS011;8065;49.520;11.284;2023-11-18T00:22:38;10.27;;;6.77;;
15931;SDS011;8065;49.520;11.284;2023-11-18T00:25:07;6.83;;;6.00;;
15931;SDS011;8065;49.520;11.284;2023-11-18T00:27:37;7.57;;;6.17;;
15931;SDS011;8065;49.520;11.284;2023-11-18T00:30:06;8.33;;;6.07;;
15931;SDS011;8065;49.520;11.284;2023-11-18T00:32:36;7.07;;;5.87;;
15931;SDS011;8065;49.520;11.284;2023-11-18T00:35:04;6.93;;;5.67;;
15931;SDS011;8065;49.520;11.284;2023-11-18T00:37:37;8.07;;;6.10;;
15931;SDS011;8065;49.520;11.284;2023-11-18T00:40:06;7.77;;;5.90;;
15931;SDS011;8065;49.520;11.284;2023-11-18T00:42:36;9.53;;;6.50;;
15931;SDS011;8065;49.520;11.284;2023-11-18T00:45:05;6.87;;;6.03;;
15931;SDS011;8065;49.520;11.284;2023-11-18T00:47:34;7.97;;;5.67;;
15931;SDS011;8065;49.520;11.284;2023-11-18T00:50:02;9.60;;;6.53;;
15931;SDS011;8065;49.520;11.284;2023-11-18T00:52:35;10.77;;;7.57;;
15931;SDS011;8065;49.520;11.284;2023-11-18T00:55:06;8.90;;;6.60;;
15931;SDS011;8065;49.520;11.284;2023-11-18T00:57:36;7.43;;;6.60;;
15931;SDS011;8065;49.520;11.284;2023-11-18T01:00:06;9.50;;;6.50;;
15931;SDS011;8065;49.520;11.284;2023-11-18T01:02:39;9.57;;;6.40;;
15931;SDS011;8065;49.520;11.284;2023-11-18T01:05:07;8.23;;;6.90;;
15931;SDS011;8065;49.520;11.284;2023-11-18T01:07:39;9.83;;;6.60;;
15931;SDS011;8065;49.520;11.284;2023-11-18T01:10:08;7.57;;;5.97;;
15931;SDS011;8065;49.520;11.284;2023-11-18T01:12:38;9.83;;;6.80;;
15931;SDS011;8065;49.520;11.284;2023-11-18T01:15:07;8.03;;;5.73;;
15931;SDS011;8065;49.520;11.284;2023-11-18T01:17:37;7.27;;;5.70;;
15931;SDS011;8065;49.520;11.284;2023-11-18T01:20:06;8.67;;;6.03;;
15931;SDS011;8065;49.520;11.284;2023-11-18T01:22:39;7.50;;;6.07;;
15931;SDS011;8065;49.520;11.284;2023-11-18T01:25:10;9.50;;;5.93;;
15931;SDS011;8065;49.520;11.284;2023-11-18T01:27:38;6.43;;;5.73;;
15931;SDS011;8065;49.520;11.284;2023-11-18T01:30:08;7.03;;;5.93;;
15931;SDS011;8065;49.520;11.284;2023-11-18T01:32:37;6.73;;;5.63;;
15931;SDS011;8065;49.520;11.284;2023-11-18T01:35:06;12.03;;;6.40;;
15931;SDS011;8065;49.520;11.284;2023-11-18T01:37:36;8.40;;;6.10;;
15931;SDS011;8065;49.520;11.284;2023-11-18T01:40:07;9.20;;;6.40;;
15931;SDS011;8065;49.520;11.284;2023-11-18T01:42:37;10.43;;;6.73;;
15931;SDS011;8065;49.520;11.284;2023-11-18T01:45:05;11.03;;;6.80;;
15931;SDS011;8065;49.520;11.284;2023-11-18T01:47:36;11.63;;;6.87;;
15931;SDS011;8065;49.520;11.284;2023-11-18T01:50:06;9.97;;;6.83;;
15931;SDS011;8065;49.520;11.284;2023-11-18T01:52:39;8.90;;;6.00;;
15931;SDS011;8065;49.520;11.284;2023-11-18T01:55:13;9.47;;;6.67;;
15931;SDS011;8065;49.520;11.284;2023-11-18T01:57:42;9.50;;;6.37;;
15931;SDS011;8065;49.520;11.284;2023-11-18T02:00:11;8.40;;;5.90;;
15931;SDS011;8065;49.520;11.284;2023-11-18T02:02:42;8.70;;;5.90;;
15931;SDS011;8065;49.520;11.284;2023-11-18T02:05:10;8.57;;;5.83;;
15931;SDS011;8065;49.520;11.284;2023-11-18T02:07:41;6.57;;;5.30;;
15931;SDS011;8065;49.520;11.284;2023-11-18T02:10:11;6.73;;;5.70;;
15931;SDS011;8065;49.520;11.284;2023-11-18T02:12:43;5.70;;;5.10;;
15931;SDS011;8065;49.520;11.284;2023-11-18T02:15:14;6.87;;;5.60;;
15931;SDS011;8065;49.520;11.284;2023-11-18T02:17:43;8.27;;;5.50;;
15931;SDS011;8065;49.520;11.284;2023-11-18T02:20:13;12.77;;;8.53;;
15931;SDS011;8065;49.520;11.284;2023-11-18T02:22:48;11.23;;;6.60;;
15931;SDS011;8065;49.520;11.284;2023-11-18T02:25:17;7.93;;;6.03;;
15931;SDS011;8065;49.520;11.284;2023-11-18T02:27:49;7.70;;;5.70;;
15931;SDS011;8065;49.520;11.284;2023-11-18T02:30:17;7.77;;;5.93;;
15931;SDS011;8065;49.520;11.284;2023-11-18T02:32:49;7.67;;;5.80;;
15931;SDS011;8065;49.520;11.284;2023-11-18T02:35:28;8.30;;;5.67;;
15931;SDS011;8065;49.520;11.284;2023-11-18T02:38:00;7.40;;;5.87;;
15931;SDS011;8065;49.520;11.284;2023-11-18T02:40:32;8.10;;;6.13;;
15931;SDS011;8065;49.520;11.284;2023-11-18T02:43:04;6.67;;;5.50;;
15931;SDS011;8065;49.520;11.284;2023-11-18T02:45:35;8.23;;;5.43;;
15931;SDS011;8065;49.520;11.284;2023-11-18T02:48:05;8.30;;;5.30;;
15931;SDS011;8065;49.520;11.284;2023-11-18T02:50:33;6.07;;;5.47;;
15931;SDS011;8065;49.520;11.284;2023-11-18T02:53:03;6.83;;;5.70;;
15931;SDS011;8065;49.520;11.284;2023-11-18T02:55:29;7.30;;;5.47;;
15931;SDS011;8065;49.520;11.284;2023-11-18T02:57:57;11.27;;;5.70;;
15931;SDS011;8065;49.520;11.284;2023-11-18T03:00:28;7.67;;;5.47;;
15931;SDS011;8065;49.520;11.284;2023-11-18T03:02:56;8.83;;;5.43;;
15931;SDS011;8065;49.520;11.284;2023-11-18T03:05:24;7.20;;;5.33;;
15931;SDS011;8065;49.520;11.284;2023-11-18T03:07:53;7.90;;;5.20;;
15931;SDS011;8065;49.520;11.284;2023-11-18T03:10:23;5.40;;;4.90;;
15931;SDS011;8065;49.520;11.284;2023-11-18T03:12:52;8.53;;;5.83;;
15931;SDS011;8065;49.520;11.284;2023-11-18T03:15:22;8.20;;;5.97;;
15931;SDS011;8065;49.520;11.284;2023-11-18T03:17:53;7.50;;;5.50;;
15931;SDS011;8065;49.520;11.284;2023-11-18T03:20:22;5.53;;;4.67;;
15931;SDS011;8065;49.520;11.284;2023-11-18T03:22:51;6.83;;;5.00;;
15931;SDS011;8065;49.520;11.284;2023-11-18T03:25:19;5.93;;;4.80;;
15931;SDS011;8065;49.520;11.284;2023-11-18T03:27:49;5.27;;;4.63;;
15931;SDS011;8065;49.520;11.284;2023-11-18T03:30:19;5.87;;;4.77;;
15931;SDS011;8065;49.520;11.284;2023-11-18T03:32:48;6.20;;;5.00;;
15931;SDS011;8065;49.520;11.284;2023-11-18T03:35:19;7.23;;;5.27;;
15931;SDS011;8065;49.520;11.284;2023-11-18T03:37:49;7.30;;;4.97;;
15931;SDS011;8065;49.520;11.284;2023-11-18T03:40:17;5.67;;;5.00;;
15931;SDS011;8065;49.520;11.284;2023-11-18T03:42:46;8.83;;;5.27;;
15931;SDS011;8065;49.520;11.284;2023-11-18T03:45:14;6.43;;;5.17;;
15931;SDS011;8065;49.520;11.284;2023-11-18T03:47:43;6.13;;;4.80;;
15931;SDS011;8065;49.520;11.284;2023-11-18T03:50:12;7.20;;;5.10;;
15931;SDS011;8065;49.520;11.284;2023-11-18T03:52:43;5.40;;;4.90;;
15931;SDS011;8065;49.520;11.284;2023-11-18T03:55:11;6.20;;;5.13;;
15931;SDS011;8065;49.520;11.284;2023-11-18T03:57:40;6.50;;;4.60;;
15931;SDS011;8065;49.520;11.284;2023-11-18T04:00:11;5.53;;;4.90;;
15931;SDS011;8065;49.520;11.284;2023-11-18T04:02:42;5.80;;;5.00;;
15931;SDS011;8065;49.520;11.284;2023-11-18T04:05:11;5.90;;;4.77;;
15931;SDS011;8065;49.520;11.284;2023-11-18T04:07:39;5.13;;;4.63;;
15931;SDS011;8065;49.520;11.284;2023-11-18T04:10:11;5.50;;;4.77;;
15931;SDS011;8065;49.520;11.284;2023-11-18T04:12:40;5.47;;;4.90;;
15931;SDS011;8065;49.520;11.284;2023-11-18T04:15:12;5.53;;;4.90;;
15931;SDS011;8065;49.520;11.284;2023-11-18T04:17:40;5.73;;;4.70;;
15931;SDS011;8065;49.520;11.284;2023-11-18T04:20:10;5.73;;;4.73;;
15931;SDS011;8065;49.520;11.284;2023-11-18T04:22:41;5.73;;;4.50;;
15931;SDS011;8065;49.520;11.284;2023-11-18T04:25:12;5.43;;;4.50;;
15931;SDS011;8065;49.520;11.284;2023-11-18T04:27:40;5.40;;;4.90;;
15931;SDS011;8065;49.520;11.284;2023-11-18T04:30:09;6.87;;;5.20;;
15931;SDS011;8065;49.520;11.284;2023-11-18T04:32:38;6.70;;;4.63;;
15931;SDS011;8065;49.520;11.284;2023-11-18T04:35:08;6.80;;;4.23;;
15931;SDS011;8065;49.520;11.284;2023-11-18T04:37:37;5.53;;;4.30;;
15931;SDS011;8065;49.520;11.284;2023-11-18T04:40:08;6.10;;;4.37;;
15931;SDS011;8065;49.520;11.284;2023-11-18T04:42:40;5.07;;;4.57;;
15931;SDS011;8065;49.520;11.284;2023-11-18T04:45:09;6.40;;;4.20;;
15931;SDS011;8065;49.520;11.284;2023-11-18T04:47:39;5.50;;;4.17;;
15931;SDS011;8065;49.520;11.284;2023-11-18T04:50:09;6.73;;;4.27;;
15931;SDS011;8065;49.520;11.284;2023-11-18T04:52:38;6.07;;;4.30;;
15931;SDS011;8065;49.520;11.284;2023-11-18T04:55:07;4.77;;;4.27;;
15931;SDS011;8065;49.520;11.284;2023-11-18T04:57:40;7.50;;;4.17;;
15931;SDS011;8065;49.520;11.284;2023-11-18T05:00:10;4.87;;;4.23;;
15931;SDS011;8065;49.520;11.284;2023-11-18T05:02:42;4.60;;;3.80;;
15931;SDS011;8065;49.520;11.284;2023-11-18T05:05:12;5.43;;;4.13;;
15931;SDS011;8065;49.520;11.284;2023-11-18T05:07:41;4.93;;;4.03;;
15931;SDS011;8065;49.520;11.284;2023-11-18T05:10:09;4.77;;;3.93;;
15931;SDS011;8065;49.520;11.284;2023-11-18T05:12:41;4.87;;;4.00;;
15931;SDS011;8065;49.520;11.284;2023-11-18T05:15:09;4.37;;;3.97;;
15931;SDS011;8065;49.520;11.284;2023-11-18T05:17:37;4.47;;;4.07;;
15931;SDS011;8065;49.520;11.284;2023-11-18T05:20:06;5.00;;;3.83;;
15931;SDS011;8065;49.520;11.284;2023-11-18T05:22:36;5.33;;;4.30;;
15931;SDS011;8065;49.520;11.284;2023-11-18T05:25:05;6.33;;;4.20;;
15931;SDS011;8065;49.520;11.284;2023-11-18T05:27:34;5.27;;;4.27;;
15931;SDS011;8065;49.520;11.284;2023-11-18T05:30:08;5.83;;;5.00;;
15931;SDS011;8065;49.520;11.284;2023-11-18T05:32:37;5.17;;;4.30;;
15931;SDS011;8065;49.520;11.284;2023-11-18T05:35:06;6.23;;;4.43;;
15931;SDS011;8065;49.520;11.284;2023-11-18T05:37:36;10.60;;;4.63;;
15931;SDS011;8065;49.520;11.284;2023-11-18T05:40:06;5.17;;;4.43;;
15931;SDS011;8065;49.520;11.284;2023-11-18T05:42:36;8.80;;;5.20;;
15931;SDS011;8065;49.520;11.284;2023-11-18T05:45:09;6.23;;;4.97;;
15931;SDS011;8065;49.520;11.284;2023-11-18T05:47:52;6.07;;;4.83;;
15931;SDS011;8065;49.520;11.284;2023-11-18T05:50:21;7.93;;;4.57;;
15931;SDS011;8065;49.520;11.284;2023-11-18T05:52:49;5.47;;;4.53;;
15931;SDS011;8065;49.520;11.284;2023-11-18T05:55:18;7.57;;;5.30;;
15931;SDS011;8065;49.520;11.284;2023-11-18T05:57:46;7.73;;;6.50;;
15931;SDS011;8065;49.520;11.284;2023-11-18T06:00:17;10.17;;;9.17;;
15931;SDS011;8065;49.520;11.284;2023-11-18T06:02:46;7.33;;;6.57;;
15931;SDS011;8065;49.520;11.284;2023-11-18T06:05:15;6.90;;;6.03;;
15931;SDS011;8065;49.520;11.284;2023-11-18T06:07:43;8.17;;;6.33;;
15931;SDS011;8065;49.520;11.284;2023-11-18T06:10:12;7.90;;;6.57;;
15931;SDS011;8065;49.520;11.284;2023-11-18T06:12:40;8.80;;;6.17;;
15931;SDS011;8065;49.520;11.284;2023-11-18T06:15:09;7.53;;;5.17;;
15931;SDS011;8065;49.520;11.284;2023-11-18T06:17:43;8.03;;;5.30;;
15931;SDS011;8065;49.520;11.284;2023-11-18T06:20:11;6.10;;;4.80;;
15931;SDS011;8065;49.520;11.284;2023-11-18T06:22:42;7.20;;;5.00;;
15931;SDS011;8065;49.520;11.284;2023-11-18T06:25:10;5.70;;;4.63;;
15931;SDS011;8065;49.520;11.284;2023-11-18T06:27:38;7.83;;;5.10;;
15931;SDS011;8065;49.520;11.284;2023-11-18T06:30:11;6.53;;;4.93;;
15931;SDS011;8065;49.520;11.284;2023-11-18T06:32:43;8.20;;;5.57;;
15931;SDS011;8065;49.520;11.284;2023-11-18T06:35:12;7.33;;;5.43;;
15931;SDS011;8065;49.520;11.284;2023-11-18T06:37:40;11.37;;;6.13;;
15931;SDS011;8065;49.520;11.284;2023-11-18T06:40:09;14.13;;;6.43;;
15931;SDS011;8065;49.520;11.284;2023-11-18T06:42:41;17.10;;;6.53;;
15931;SDS011;8065;49.520;11.284;2023-11-18T06:45:12;10.03;;;5.87;;
15931;SDS011;8065;49.520;11.284;2023-11-18T06:47:43;12.37;;;5.90;;
15931;SDS011;8065;49.520;11.284;2023-11-18T06:50:11;15.97;;;6.87;;
15931;SDS011;8065;49.520;11.284;2023-11-18T06:52:40;19.67;;;7.63;;
15931;SDS011;8065;49.520;11.284;2023-11-18T06:55:10;10.13;;;6.20;;
15931;SDS011;8065;49.520;11.284;2023-11-18T06:57:39;9.57;;;6.30;;
15931;SDS011;8065;49.520;11.284;2023-11-18T07:00:08;12.53;;;7.57;;
15931;SDS011;8065;49.520;11.284;2023-11-18T07:02:39;21.23;;;7.70;;
15931;SDS011;8065;49.520;11.284;2023-11-18T07:05:10;23.87;;;7.80;;
15931;SDS011;8065;49.520;11.284;2023-11-18T07:07:39;17.10;;;7.70;;
15931;SDS011;8065;49.520;11.284;2023-11-18T07:10:08;27.43;;;7.97;;
15931;SDS011;8065;49.520;11.284;2023-11-18T07:12:38;28.97;;;8.60;;
15931;SDS011;8065;49.520;11.284;2023-11-18T07:15:06;23.80;;;8.70;;
15931;SDS011;8065;49.520;11.284;2023-11-18T07:17:36;35.57;;;10.37;;
15931;SDS011;8065;49.520;11.284;2023-11-18T07:20:04;19.20;;;9.23;;
15931;SDS011;8065;49.520;11.284;2023-11-18T07:22:39;17.53;;;9.20;;
15931;SDS011;8065;49.520;11.284;2023-11-18T07:25:07;20.57;;;9.20;;
15931;SDS011;8065;49.520;11.284;2023-11-18T07:27:36;15.13;;;9.20;;
15931;SDS011;8065;49.520;11.284;2023-11-18T07:30:05;14.13;;;8.57;;
15931;SDS011;8065;49.520;11.284;2023-11-18T07:32:35;17.50;;;9.97;;
15931;SDS011;8065;49.520;11.284;2023-11-18T07:35:05;21.40;;;9.90;;
15931;SDS011;8065;49.520;11.284;2023-11-18T07:37:34;19.33;;;10.33;;
15931;SDS011;8065;49.520;11.284;2023-11-18T07:40:07;17.87;;;10.37;;
15931;SDS011;8065;49.520;11.284;2023-11-18T07:42:37;13.40;;;9.77;;
15931;SDS011;8065;49.520;11.284;2023-11-18T07:45:05;17.50;;;9.80;;
15931;SDS011;8065;49.520;11.284;2023-11-18T07:47:42;16.60;;;10.33;;
15931;SDS011;8065;49.520;11.284;2023-11-18T07:50:11;15.17;;;9.47;;
15931;SDS011;8065;49.520;11.284;2023-11-18T07:52:41;17.23;;;9.10;;
15931;SDS011;8065;49.520;11.284;2023-11-18T07:55:12;11.50;;;8.50;;
15931;SDS011;8065;49.520;11.284;2023-11-18T07:57:40;12.97;;;8.50;;
15931;SDS011;8065;49.520;11.284;2023-11-18T08:00:09;11.67;;;8.03;;
15931;SDS011;8065;49.520;11.284;2023-11-18T08:02:40;10.43;;;7.70;;
15931;SDS011;8065;49.520;11.284;2023-11-18T08:05:09;9.97;;;8.03;;
15931;SDS011;8065;49.520;11.284;2023-11-18T08:07:40;12.03;;;6.93;;
15931;SDS011;8065;49.520;11.284;2023-11-18T08:10:08;9.63;;;6.80;;
15931;SDS011;8065;49.520;11.284;2023-11-18T08:12:43;8.50;;;7.07;;
15931;SDS011;8065;49.520;11.284;2023-11-18T08:15:12;10.10;;;7.43;;
15931;SDS011;8065;49.520;11.284;2023-11-18T08:17:41;10.17;;;7.27;;
15931;SDS011;8065;49.520;11.284;2023-11-18T08:20:09;11.77;;;8.13;;
15931;SDS011;8065;49.520;11.284;2023-11-18T08:22:39;9.93;;;7.80;;
15931;SDS011;8065;49.520;11.284;2023-11-18T08:25:09;10.53;;;7.30;;
15931;SDS011;8065;49.520;11.284;2023-11-18T08:27:42;8.87;;;7.37;;
15931;SDS011;8065;49.520;11.284;2023-11-18T08:30:11;8.87;;;6.57;;
15931;SDS011;8065;49.520;11.284;2023-11-18T08:32:43;8.50;;;6.80;;
15931;SDS011;8065;49.520;11.284;2023-11-18T08:35:12;9.77;;;7.03;;
15931;SDS011;8065;49.520;11.284;2023-11-18T08:37:41;9.37;;;7.20;;
15931;SDS011;8065;49.520;11.284;2023-11-18T08:40:13;9.60;;;6.73;;
15931;SDS011;8065;49.520;11.284;2023-11-18T08:42:47;11.67;;;7.73;;
15931;SDS011;8065;49.520;11.284;2023-11-18T08:45:17;13.40;;;7.93;;
15931;SDS011;8065;49.520;11.284;2023-11-18T08:47:47;8.63;;;7.10;;
15931;SDS011;8065;49.520;11.284;2023-11-18T08:50:18;10.83;;;7.30;;
15931;SDS011;8065;49.520;11.284;2023-11-18T08:52:49;10.50;;;7.53;;
15931;SDS011;8065;49.520;11.284;2023-11-18T08:55:26;9.47;;;7.67;;
15931;SDS011;8065;49.520;11.284;2023-11-18T08:58:04;9.87;;;7.53;;
15931;SDS011;8065;49.520;11.284;2023-11-18T09:00:41;9.97;;;8.03;;
15931;SDS011;8065;49.520;11.284;2023-11-18T09:03:20;10.60;;;7.83;;
15931;SDS011;8065;49.520;11.284;2023-11-18T09:05:53;10.80;;;8.30;;
15931;SDS011;8065;49.520;11.284;2023-11-18T09:08:29;10.07;;;8.00;;
15931;SDS011;8065;49.520;11.284;2023-11-18T09:11:03;10.50;;;8.10;;
15931;SDS011;8065;49.520;11.284;2023-11-18T09:13:33;12.27;;;7.90;;
15931;SDS011;8065;49.520;11.284;2023-11-18T09:16:03;12.17;;;8.23;;
15931;SDS011;8065;49.520;11.284;2023-11-18T09:18:34;10.53;;;7.83;;
15931;SDS011;8065;49.520;11.284;2023-11-18T09:21:04;9.87;;;7.77;;
15931;SDS011;8065;49.520;11.284;2023-11-18T09:23:39;10.53;;;8.60;;
15931;SDS011;8065;49.520;11.284;2023-11-18T09:26:11;12.40;;;9.00;;
15931;SDS011;8065;49.520;11.284;2023-11-18T09:28:39;12.03;;;9.20;;
15931;SDS011;8065;49.520;11.284;2023-11-18T09:31:09;14.00;;;9.00;;
15931;SDS011;8065;49.520;11.284;2023-11-18T09:33:38;11.33;;;8.87;;
15931;SDS011;8065;49.520;11.284;2023-11-18T09:36:10;13.67;;;9.20;;
15931;SDS011;8065;49.520;11.284;2023-11-18T09:38:41;11.87;;;9.03;;
15931;SDS011;8065;49.520;11.284;2023-11-18T09:41:14;11.57;;;8.97;;
15931;SDS011;8065;49.520;11.284;2023-11-18T09:43:44;14.87;;;10.23;;
15931;SDS011;8065;49.520;11.284;2023-11-18T09:46:14;14.10;;;9.60;;
15931;SDS011;8065;49.520;11.284;2023-11-18T09:48:50;35.33;;;21.50;;
15931;SDS011;8065;49.520;11.284;2023-11-18T09:51:25;14.67;;;11.93;;
15931;SDS011;8065;49.520;11.284;2023-11-18T09:53:58;12.57;;;9.77;;
15931;SDS011;8065;49.520;11.284;2023-11-18T09:56:34;13.33;;;9.77;;
15931;SDS011;8065;49.520;11.284;2023-11-18T09:59:11;12.97;;;9.03;;
15931;SDS011;8065;49.520;11.284;2023-11-18T10:01:46;13.67;;;9.13;;
15931;SDS011;8065;49.520;11.284;2023-11-18T10:04:18;14.03;;;9.50;;
15931;SDS011;8065;49.520;11.284;2023-11-18T10:06:47;13.90;;;10.70;;
15931;SDS011;8065;49.520;11.284;2023-11-18T10:09:18;11.63;;;9.70;;
15931;SDS011;8065;49.520;11.284;2023-11-18T10:11:55;12.60;;;9.67;;
15931;SDS011;8065;49.520;11.284;2023-11-18T10:14:30;10.70;;;9.27;;
15931;SDS011;8065;49.520;11.284;2023-11-18T10:16:58;11.43;;;9.37;;
15931;SDS011;8065;49.520;11.284;2023-11-18T10:22:24;16.17;;;13.23;;
15931;SDS011;8065;49.520;11.284;2023-11-18T10:24:54;18.83;;;13.47;;
15931;SDS011;8065;49.520;11.284;2023-11-18T10:27:28;26.67;;;18.57;;
15931;SDS011;8065;49.520;11.284;2023-11-18T10:30:01;18.27;;;13.30;;
15931;SDS011;8065;49.520;11.284;2023-11-18T10:32:31;15.93;;;11.43;;
15931;SDS011;8065;49.520;11.284;2023-11-18T10:35:00;14.77;;;10.90;;
15931;SDS011;8065;49.520;11.284;2023-11-18T10:37:32;19.83;;;14.60;;
15931;SDS011;8065;49.520;11.284;2023-11-18T10:40:07;21.60;;;14.60;;
15931;SDS011;8065;49.520;11.284;2023-11-18T10:42:41;15.97;;;10.97;;
15931;SDS011;8065;49.520;11.284;2023-11-18T10:45:15;14.00;;;10.70;;
15931;SDS011;8065;49.520;11.284;2023-11-18T10:47:52;13.43;;;9.73;;
15931;SDS011;8065;49.520;11.284;2023-11-18T10:50:22;12.27;;;9.87;;
15931;SDS011;8065;49.520;11.284;2023-11-18T10:52:57;14.70;;;11.30;;
15931;SDS011;8065;49.520;11.284;2023-11-18T10:55:33;17.80;;;12.07;;
15931;SDS011;8065;49.520;11.284;2023-11-18T10:58:06;12.37;;;10.00;;
15931;SDS011;8065;49.520;11.284;2023-11-18T11:00:45;12.60;;;10.37;;
15931;SDS011;8065;49.520;11.284;2023-11-18T11:03:14;11.00;;;9.50;;
15931;SDS011;8065;49.520;11.284;2023-11-18T11:05:43;11.60;;;9.77;;
15931;SDS011;8065;49.520;11.284;2023-11-18T11:08:13;12.50;;;10.13;;
15931;SDS011;8065;49.520;11.284;2023-11-18T11:10:42;23.10;;;13.80;;
15931;SDS011;8065;49.520;11.284;2023-11-18T11:13:14;14.20;;;12.10;;
15931;SDS011;8065;49.520;11.284;2023-11-18T11:15:45;15.97;;;11.40;;
15931;SDS011;8065;49.520;11.284;2023-11-18T11:18:19;12.20;;;9.93;;
15931;SDS011;8065;49.520;11.284;2023-11-18T11:20:55;13.27;;;11.13;;
15931;SDS011;8065;49.520;11.284;2023-11-18T11:23:30;13.17;;;10.47;;
15931;SDS011;8065;49.520;11.284;2023-11-18T11:26:12;15.60;;;11.37;;
15931;SDS011;8065;49.520;11.284;2023-11-18T11:28:51;18.13;;;13.17;;
15931;SDS011;8065;49.520;11.284;2023-11-18T11:31:30;16.37;;;11.67;;
15931;SDS011;8065;49.520;11.284;2023-11-18T11:34:02;12.97;;;11.43;;
15931;SDS011;8065;49.520;11.284;2023-11-18T11:36:35;13.53;;;10.93;;
15931;SDS011;8065;49.520;11.284;2023-11-18T11:39:07;15.43;;;12.17;;
15931;SDS011;8065;49.520;11.284;2023-11-18T11:41:41;12.03;;;10.57;;
15931;SDS011;8065;49.520;11.284;2023-11-18T11:44:18;14.97;;;10.90;;
15931;SDS011;8065;49.520;11.284;2023-11-18T11:46:53;12.33;;;10.97;;
15931;SDS011;8065;49.520;11.284;2023-11-18T11:49:25;13.50;;;10.57;;
15931;SDS011;8065;49.520;11.284;2023-11-18T11:51:56;11.73;;;10.00;;
15931;SDS011;8065;49.520;11.284;2023-11-18T11:54:34;12.97;;;10.83;;
15931;SDS011;8065;49.520;11.284;2023-11-18T11:57:10;15.43;;;11.67;;
15931;SDS011;8065;49.520;11.284;2023-11-18T11:59:57;11.97;;;10.47;;
15931;SDS011;8065;49.520;11.284;2023-11-18T12:02:40;14.57;;;11.30;;
15931;SDS011;8065;49.520;11.284;2023-11-18T12:05:17;14.83;;;12.83;;
15931;SDS011;8065;49.520;11.284;2023-11-18T12:07:50;16.17;;;13.23;;
15931;SDS011;8065;49.520;11.284;2023-11-18T12:10:20;23.80;;;13.37;;
15931;SDS011;8065;49.520;11.284;2023-11-18T12:12:50;27.83;;;13.87;;
15931;SDS011;8065;49.520;11.284;2023-11-18T12:18:29;17.47;;;13.93;;
15931;SDS011;8065;49.520;11.284;2023-11-18T12:20:59;20.90;;;14.10;;
15931;SDS011;8065;49.520;11.284;2023-11-18T12:23:29;16.03;;;12.93;;
15931;SDS011;8065;49.520;11.284;2023-11-18T12:25:59;14.93;;;12.47;;
15931;SDS011;8065;49.520;11.284;2023-11-18T12:28:28;13.93;;;11.37;;
15931;SDS011;8065;49.520;11.284;2023-11-18T12:31:02;17.07;;;12.80;;
15931;SDS011;8065;49.520;11.284;2023-11-18T12:42:59;13.43;;;11.37;;
15931;SDS011;8065;49.520;11.284;2023-11-18T12:45:43;14.17;;;11.33;;
15931;SDS011;8065;49.520;11.284;2023-11-18T12:48:27;14.10;;;11.67;;
15931;SDS011;8065;49.520;11.284;2023-11-18T12:51:01;12.83;;;11.23;;
15931;SDS011;8065;49.520;11.284;2023-11-18T12:53:35;13.20;;;11.10;;
15931;SDS011;8065;49.520;11.284;2023-11-18T12:56:03;15.27;;;12.10;;
15931;SDS011;8065;49.520;11.284;2023-11-18T12:58:33;14.77;;;12.17;;
15931;SDS011;8065;49.520;11.284;2023-11-18T13:01:02;14.97;;;12.50;;
15931;SDS011;8065;49.520;11.284;2023-11-18T13:03:34;13.00;;;11.30;;
15931;SDS011;8065;49.520;11.284;2023-11-18T13:06:03;15.57;;;13.10;;
15931;SDS011;8065;49.520;11.284;2023-11-18T13:08:32;14.77;;;12.13;;
15931;SDS011;8065;49.520;11.284;2023-11-18T13:11:00;18.60;;;15.80;;
15931;SDS011;8065;49.520;11.284;2023-11-18T13:13:30;20.30;;;16.17;;
15931;SDS011;8065;49.520;11.284;2023-11-18T13:15:58;17.73;;;14.27;;
15931;SDS011;8065;49.520;11.284;2023-11-18T13:18:29;19.57;;;15.33;;
15931;SDS011;8065;49.520;11.284;2023-11-18T13:21:14;17.90;;;13.90;;
15931;SDS011;8065;49.520;11.284;2023-11-18T13:23:46;17.57;;;13.40;;
15931;SDS011;8065;49.520;11.284;2023-11-18T13:26:17;19.60;;;14.40;;
15931;SDS011;8065;49.520;11.284;2023-11-18T13:28:47;18.37;;;14.67;;
15931;SDS011;8065;49.520;11.284;2023-11-18T13:31:17;23.10;;;15.00;;
15931;SDS011;8065;49.520;11.284;2023-11-18T13:33:49;20.53;;;18.03;;
15931;SDS011;8065;49.520;11.284;2023-11-18T13:36:18;24.20;;;21.67;;
15931;SDS011;8065;49.520;11.284;2023-11-18T13:38:47;19.00;;;13.80;;
15931;SDS011;8065;49.520;11.284;2023-11-18T13:44:03;19.07;;;16.37;;
15931;SDS011;8065;49.520;11.284;2023-11-18T13:46:32;15.33;;;13.00;;
15931;SDS011;8065;49.520;11.284;2023-11-18T13:49:03;27.60;;;18.57;;
15931;SDS011;8065;49.520;11.284;2023-11-18T13:51:31;28.23;;;19.33;;
15931;SDS011;8065;49.520;11.284;2023-11-18T13:54:01;27.00;;;18.90;;
15931;SDS011;8065;49.520;11.284;2023-11-18T13:56:30;20.33;;;16.47;;
15931;SDS011;8065;49.520;11.284;2023-11-18T13:58:59;22.20;;;18.10;;
15931;SDS011;8065;49.520;11.284;2023-11-18T14:01:28;22.70;;;16.37;;
15931;SDS011;8065;49.520;11.284;2023-11-18T14:03:56;16.43;;;12.63;;
15931;SDS011;8065;49.520;11.284;2023-11-18T14:06:31;15.20;;;11.90;;
15931;SDS011;8065;49.520;11.284;2023-11-18T14:09:00;17.97;;;14.90;;
15931;SDS011;8065;49.520;11.284;2023-11-18T14:11:29;15.73;;;13.43;;
15931;SDS011;8065;49.520;11.284;2023-11-18T14:13:59;16.47;;;13.13;;
15931;SDS011;8065;49.520;11.284;2023-11-18T14:16:27;15.63;;;13.23;;
15931;SDS011;8065;49.520;11.284;2023-11-18T14:18:56;15.50;;;13.70;;
15931;SDS011;8065;49.520;11.284;2023-11-18T14:21:25;14.63;;;12.80;;
15931;SDS011;8065;49.520;11.284;2023-11-18T14:23:56;16.90;;;13.57;;
15931;SDS011;8065;49.520;11.284;2023-11-18T14:26:25;14.60;;;13.00;;
15931;SDS011;8065;49.520;11.284;2023-11-18T14:28:54;19.30;;;14.50;;
15931;SDS011;8065;49.520;11.284;2023-11-18T14:31:24;15.53;;;13.57;;
15931;SDS011;8065;49.520;11.284;2023-11-18T14:33:53;15.97;;;12.80;;
15931;SDS011;8065;49.520;11.284;2023-11-18T14:36:23;16.30;;;13.17;;
15931;SDS011;8065;49.520;11.284;2023-11-18T14:38:52;17.10;;;12.37;;
15931;SDS011;8065;49.520;11.284;2023-11-18T14:41:23;16.70;;;13.07;;
15931;SDS011;8065;49.520;11.284;2023-11-18T14:43:56;14.43;;;12.43;;
15931;SDS011;8065;49.520;11.284;2023-11-18T14:46:27;13.20;;;11.67;;
15931;SDS011;8065;49.520;11.284;2023-11-18T14:48:56;15.77;;;11.90;;
15931;SDS011;8065;49.520;11.284;2023-11-18T14:51:24;14.63;;;12.20;;
15931;SDS011;8065;49.520;11.284;2023-11-18T14:53:53;13.23;;;10.90;;
15931;SDS011;8065;49.520;11.284;2023-11-18T14:56:24;14.23;;;11.03;;
15931;SDS011;8065;49.520;11.284;2023-11-18T14:58:53;14.40;;;11.20;;
15931;SDS011;8065;49.520;11.284;2023-11-18T15:01:22;12.77;;;10.20;;
15931;SDS011;8065;49.520;11.284;2023-11-18T15:03:51;11.60;;;9.80;;
15931;SDS011;8065;49.520;11.284;2023-11-18T15:06:24;12.03;;;9.60;;
15931;SDS011;8065;49.520;11.284;2023-11-18T15:08:54;9.97;;;8.87;;
15931;SDS011;8065;49.520;11.284;2023-11-18T15:11:25;9.97;;;8.97;;
15931;SDS011;8065;49.520;11.284;2023-11-18T15:13:54;10.03;;;8.10;;